Home > Products > Valid Products > TAF

000
FTUS41 KILN 291130
TAFCVG
TAF
KCVG 291130Z 2912/3018 00000KT 5SM BR SCT250
     FM291300 25005KT P6SM SCT040 BKN150
     FM291800 28009KT P6SM VCTS BKN040CB
      TEMPO 2919/2921 4SM -TSRA BKN035CB
     FM292300 30006KT P6SM SCT120
     FM300600 34007KT P6SM SCT020
     FM301300 31007KT P6SM FEW030=



000
FTUS41 KILN 291130
TAFILN
TAF
KILN 291130Z 2912/3012 00000KT 2SM BR FEW250
     FM291300 25005KT P6SM FEW035 BKN150
     FM291900 27007KT P6SM VCTS BKN035CB
     FM292300 29007KT P6SM SCT120
     FM300600 34006KT P6SM SCT020=



000
FTUS41 KILN 291130
TAFLUK
TAF
KLUK 291130Z 2912/3012 00000KT 1SM BR BKN004
     FM291300 22003KT P6SM SCT040 BKN150
     FM291800 28008KT P6SM VCTS BKN040CB
      TEMPO 2919/2921 4SM -TSRA BKN035CB
     FM292300 30004KT P6SM SCT120
     FM300600 34004KT P6SM SCT020
      TEMPO 3007/3011 3SM BR=



000
FTUS41 KILN 291130
TAFCMH
TAF
KCMH 291130Z 2912/3012 22005KT P6SM SCT200
     FM291900 27008KT P6SM VCTS BKN035CB
     FM300000 29007KT P6SM SCT120
     FM300600 34006KT P6SM SCT020=



000
FTUS41 KILN 291130
TAFLCK
TAF
KLCK 291130Z 2912/3012 VRB03KT 3SM BR SKC
     FM291300 22005KT P6SM SCT200
     FM291900 27008KT P6SM VCTS BKN035CB
     FM300000 29007KT P6SM SCT120
     FM300600 34006KT P6SM SCT020=



000
FTUS41 KILN 291130
TAFDAY
TAF
KDAY 291130Z 2912/3012 00000KT P6SM SCT250
     FM291300 24006KT P6SM SCT035 BKN120
     FM291800 28009KT P6SM VCTS BKN040CB
      TEMPO 2919/2921 4SM -TSRA BKN035CB
     FM292300 30006KT P6SM SCT120
     FM300600 32007KT P6SM SCT020=



000
FTUS41 KILN 291004 AAA
TAFCMH
TAF AMD
KCMH 291004Z 2910/3006 00000KT P6SM SCT140
     FM291300 22005KT P6SM BKN200
     FM292000 27008KT P6SM VCTS BKN035CB=



000
FTUS41 KILN 291004 AAA
TAFDAY
TAF AMD
KDAY 291004Z 2910/3006 00000KT P6SM SKC
     FM291300 24005KT P6SM SCT035 BKN120
     FM291800 28009KT P6SM VCTS BKN040CB
      TEMPO 2919/2921 4SM -TSRA BKN035CB
     FM292300 30006KT P6SM SCT120=



000
FTUS41 KILN 291004 AAA
TAFDAY
TAF AMD
KDAY 291004Z 2910/3006 00000KT P6SM SKC
     FM291300 24005KT P6SM SCT035 BKN120
     FM291800 28009KT P6SM VCTS BKN040CB
      TEMPO 2919/2921 4SM -TSRA BKN035CB
     FM292300 30006KT P6SM SCT120=



000
FTUS41 KILN 291004 AAA
TAFCMH
TAF AMD
KCMH 291004Z 2910/3006 00000KT P6SM SCT140
     FM291300 22005KT P6SM BKN200
     FM292000 27008KT P6SM VCTS BKN035CB=



000
FTUS41 KILN 290859 AAA
TAFCVG
TAF AMD
KCVG 290859Z 2909/3012 00000KT 4SM BR SKC
      TEMPO 2911/2912 2SM BR
     FM291300 25005KT P6SM SCT040 BKN120
     FM291800 28009KT P6SM VCTS BKN040CB
      TEMPO 2919/2921 4SM -TSRA BKN035CB
     FM292300 30006KT P6SM SCT120
     FM300600 34007KT P6SM FEW040=



000
FTUS41 KILN 290539
TAFCMH
TAF
KCMH 290539Z 2906/3006 00000KT P6SM SKC
     FM290900 00000KT 4SM BR SCT250
     FM291200 22005KT P6SM BKN200
     FM292000 27008KT P6SM VCTS BKN035CB=



000
FTUS41 KILN 290539
TAFLCK
TAF
KLCK 290539Z 2906/3006 00000KT P6SM SKC
     FM290800 00000KT 4SM BR SCT250
     FM291200 22005KT P6SM BKN200
     FM292000 27008KT P6SM VCTS BKN035CB=



000
FTUS41 KILN 290539
TAFILN
TAF
KILN 290539Z 2906/3006 00000KT 3SM BR SKC
     FM290900 00000KT 1/2SM FG FEW250
     FM291300 25005KT P6SM FEW035 BKN150
     FM291900 27007KT P6SM VCTS BKN035CB
     FM292300 29007KT P6SM BKN035=



000
FTUS41 KILN 290539
TAFLUK
TAF
KLUK 290539Z 2906/3006 00000KT 5SM BR SKC
     FM290700 00000KT 2SM BR SKC
     FM290900 00000KT 1/4SM FG VV002
     FM291300 26005KT P6SM SCT040 BKN120
     FM291800 28008KT P6SM VCTS BKN040CB
      TEMPO 2919/2921 4SM -TSRA BKN035CB
     FM292300 30004KT P6SM SCT120=



000
FTUS41 KILN 290539
TAFDAY
TAF
KDAY 290539Z 2906/3006 VRB03KT P6SM SKC
     FM290900 00000KT 5SM BR SKC
     FM291300 24005KT P6SM SCT035 BKN120
     FM291800 28009KT P6SM VCTS BKN040CB
      TEMPO 2919/2921 4SM -TSRA BKN035CB
     FM292300 30006KT P6SM SCT120=



000
FTUS41 KILN 290539
TAFCVG
TAF
KCVG 290539Z 2906/3012 00000KT P6SM SKC
     FM290700 00000KT 4SM BR SKC
      TEMPO 2908/2912 2SM BR
     FM291300 25005KT P6SM SCT040 BKN120
     FM291800 28009KT P6SM VCTS BKN040CB
      TEMPO 2919/2921 4SM -TSRA BKN035CB
     FM292300 30006KT P6SM SCT120
     FM300600 34007KT P6SM FEW040=



000
FTUS41 KILN 282332
TAFDAY
TAF
KDAY 282332Z 2900/2924 08003KT P6SM SCT040 BKN250
     FM290600 00000KT 4SM BR FEW035
     FM290900 00000KT 2SM BR FEW150
     FM291300 25005KT P6SM SCT035 BKN120
     FM292000 27008KT P6SM -SHRA VCTS BKN035CB
     FM292300 28006KT P6SM FEW035 BKN200=



000
FTUS41 KILN 282332
TAFLCK
TAF
KLCK 282332Z 2900/2924 00000KT P6SM SCT040 BKN250
     FM290600 00000KT 3SM BR SCT250
     FM290900 00000KT 1/2SM FG SCT250
     FM291300 22005KT P6SM SCT035 BKN250
     FM292100 27008KT P6SM VCTS BKN035CB
     FM292300 28007KT P6SM FEW035 BKN200=



000
FTUS41 KILN 282332
TAFILN
TAF
KILN 282332Z 2900/2924 07004KT P6SM SCT040
     FM290600 00000KT 3SM BR FEW035
     FM290900 00000KT 1/2SM FG FEW250
     FM291300 25005KT P6SM FEW035 SCT150
     FM292000 27007KT P6SM -SHRA VCTS BKN035CB
     FM292300 29005KT P6SM BKN035=



000
FTUS41 KILN 282332
TAFLUK
TAF
KLUK 282332Z 2900/2924 06004KT P6SM SCT040
     FM290600 00000KT 2SM BR SCT150
     FM290900 00000KT 1/4SM FG VV002
     FM291300 26005KT P6SM SCT040 BKN120
     FM292000 28009KT P6SM -SHRA VCTS BKN035CB
     FM292300 29006KT P6SM FEW035 SCT120=



000
FTUS41 KILN 282332
TAFCMH
TAF
KCMH 282332Z 2900/2924 00000KT P6SM SCT040 BKN250
     FM290600 00000KT 3SM BR SCT250
     FM290900 00000KT 1SM BR SCT250
     FM291300 22005KT P6SM SCT035 BKN250
     FM292100 27008KT P6SM VCTS BKN035CB
     FM292300 28007KT P6SM FEW035 BKN200=



000
FTUS41 KILN 282332
TAFCVG
TAF
KCVG 282332Z 2900/3006 34005KT P6SM SCT040
     FM290800 00000KT 3SM BR SCT150
      TEMPO 2908/2912 2SM BR
     FM291300 27005KT P6SM SCT040 BKN120
     FM292000 28009KT P6SM -SHRA VCTS BKN035CB
     FM292300 30006KT P6SM FEW035 SCT120=



000
FTUS41 KILN 282332
TAFDAY
TAF
KDAY 282332Z 2900/2924 08003KT P6SM SCT040 BKN250
     FM290600 00000KT 4SM BR FEW035
     FM290900 00000KT 2SM BR FEW150
     FM291300 25005KT P6SM SCT035 BKN120
     FM292000 27008KT P6SM -SHRA VCTS BKN035CB
     FM292300 28006KT P6SM FEW035 BKN200=



000
FTUS41 KILN 282332
TAFILN
TAF
KILN 282332Z 2900/2924 07004KT P6SM SCT040
     FM290600 00000KT 3SM BR FEW035
     FM290900 00000KT 1/2SM FG FEW250
     FM291300 25005KT P6SM FEW035 SCT150
     FM292000 27007KT P6SM -SHRA VCTS BKN035CB
     FM292300 29005KT P6SM BKN035=



000
FTUS41 KILN 282332
TAFLCK
TAF
KLCK 282332Z 2900/2924 00000KT P6SM SCT040 BKN250
     FM290600 00000KT 3SM BR SCT250
     FM290900 00000KT 1/2SM FG SCT250
     FM291300 22005KT P6SM SCT035 BKN250
     FM292100 27008KT P6SM VCTS BKN035CB
     FM292300 28007KT P6SM FEW035 BKN200=



000
FTUS41 KILN 282332
TAFLUK
TAF
KLUK 282332Z 2900/2924 06004KT P6SM SCT040
     FM290600 00000KT 2SM BR SCT150
     FM290900 00000KT 1/4SM FG VV002
     FM291300 26005KT P6SM SCT040 BKN120
     FM292000 28009KT P6SM -SHRA VCTS BKN035CB
     FM292300 29006KT P6SM FEW035 SCT120=



000
FTUS41 KILN 282332
TAFCVG
TAF
KCVG 282332Z 2900/3006 34005KT P6SM SCT040
     FM290800 00000KT 3SM BR SCT150
      TEMPO 2908/2912 2SM BR
     FM291300 27005KT P6SM SCT040 BKN120
     FM292000 28009KT P6SM -SHRA VCTS BKN035CB
     FM292300 30006KT P6SM FEW035 SCT120=



000
FTUS41 KILN 282332
TAFCMH
TAF
KCMH 282332Z 2900/2924 00000KT P6SM SCT040 BKN250
     FM290600 00000KT 3SM BR SCT250
     FM290900 00000KT 1SM BR SCT250
     FM291300 22005KT P6SM SCT035 BKN250
     FM292100 27008KT P6SM VCTS BKN035CB
     FM292300 28007KT P6SM FEW035 BKN200=



000
FTUS41 KILN 282059 AAA
TAFCVG
TAF AMD
KCVG 282059Z 2821/2924 33005KT P6SM VCSH BKN035
     FM282300 VRB03KT P6SM BKN035
     FM290600 00000KT 4SM BR SCT035
     FM291000 00000KT 2SM BR FEW035 SCT250
     FM291300 28005KT P6SM SCT150 BKN250
     FM292000 28009KT P6SM -SHRA VCTS BKN035CB=



000
FTUS41 KILN 281854 AAA
TAFDAY
TAF AMD
KDAY 281854Z 2819/2918 08005KT P6SM VCSH SCT025 BKN035
     FM282200 VRB03KT P6SM SCT035
     FM290600 00000KT 4SM BR FEW035
     FM290900 00000KT 1/2SM FG FEW250
     FM291300 25005KT P6SM SCT025 BKN250=



000
FTUS41 KILN 281816 AAA
TAFILN
TAF AMD
KILN 281816Z 2818/2918 10003KT P6SM VCTS SCT025CB BKN035
      TEMPO 2818/2820 BKN025CB
     FM282200 09004KT P6SM SCT025 BKN035
     FM290600 00000KT 3SM BR FEW035
     FM290900 00000KT 1/2SM FG FEW250
     FM291300 25005KT P6SM SCT025 BKN250=



000
FTUS41 KILN 281740
TAFCVG
TAF
KCVG 281740Z 2818/2924 27005KT P6SM VCTS SCT025CB BKN035
     FM282100 32005KT P6SM VCSH BKN035
     FM282300 VRB03KT P6SM BKN035
     FM290600 00000KT 4SM BR SCT035
     FM291000 00000KT 2SM BR FEW035 SCT250
     FM291300 28005KT P6SM SCT150 BKN250
     FM292000 28009KT P6SM -SHRA VCTS BKN035CB=



000
FTUS41 KILN 281740
TAFLUK
TAF
KLUK 281740Z 2818/2918 00000KT P6SM VCTS SCT025CB BKN035
     FM282100 32003KT P6SM VCSH BKN035
     FM282300 00000KT P6SM BKN035
     FM290600 00000KT 2SM BR SCT035
     FM290800 00000KT 1/4SM FG VV002
     FM291300 00000KT 3SM BR SCT002
     FM291400 26003KT P6SM SCT150 BKN250=



000
FTUS41 KILN 281740
TAFILN
TAF
KILN 281740Z 2818/2918 10003KT P6SM VCTS SCT025CB BKN035
     FM282200 09004KT P6SM SCT025 BKN035
     FM290600 00000KT 3SM BR FEW035
     FM290900 00000KT 1/2SM FG FEW250
     FM291300 25005KT P6SM SCT025 BKN250=



000
FTUS41 KILN 281740
TAFLCK
TAF
KLCK 281740Z 2818/2918 09005KT P6SM VCSH BKN040
     FM290000 00000KT P6SM FEW040 SCT250
     FM290600 00000KT 3SM BR SCT250
     FM290900 00000KT 2SM BR SCT250
     FM291300 22005KT P6SM FEW035 SCT250=



000
FTUS41 KILN 281740
TAFCMH
TAF
KCMH 281740Z 2818/2918 09005KT P6SM VCSH BKN040
     FM290000 00000KT P6SM FEW040 SCT250
     FM290600 00000KT 3SM BR SCT250
     FM290900 00000KT 2SM BR SCT250
     FM291300 22005KT P6SM FEW035 SCT250=



000
FTUS41 KILN 281740
TAFDAY
TAF
KDAY 281740Z 2818/2918 08005KT P6SM VCTS SCT025CB BKN035
     FM282000 08005KT P6SM VCSH SCT025 BKN035
     FM282200 VRB03KT P6SM SCT035
     FM290600 00000KT 4SM BR FEW035
     FM290900 00000KT 1/2SM FG FEW250
     FM291300 25005KT P6SM SCT025 BKN250=



000
FTUS41 KILN 281457 AAA
TAFCVG
TAF AMD
KCVG 281457Z 2815/2918 12004KT P6SM SCT025 BKN250
     FM281800 07005KT P6SM VCSH SCT025 BKN040
     FM282300 VRB04KT P6SM FEW040 SCT250
     FM290600 VRB02KT 4SM BR SCT250
     FM291000 VRB02KT 2SM BR SCT250
     FM291300 VRB03KT P6SM BKN250=



000
FTUS41 KILN 281220 AAA
TAFLUK
TAF AMD
KLUK 281220Z 2812/2912 00000KT 3SM BR SKC
     FM281400 VRB03KT P6SM SCT250
     FM281700 08004KT P6SM VCSH FEW025 BKN040
     FM290000 VRB02KT P6SM FEW040 SCT250
     FM290600 00000KT 2SM BR SCT250
     FM290800 00000KT 1/4SM FG VV002=



000
FTUS41 KILN 281129
TAFCMH
TAF
KCMH 281129Z 2812/2912 07004KT P6SM SCT080
     FM281700 09005KT P6SM SCT050
     FM290000 VRB03KT P6SM FEW040 SCT250=



000
FTUS41 KILN 281129
TAFLCK
TAF
KLCK 281129Z 2812/2912 07004KT P6SM FEW040 SCT080
     FM281700 09005KT P6SM SCT050
     FM290000 VRB03KT P6SM FEW040 SCT250=



000
FTUS41 KILN 281129
TAFILN
TAF
KILN 281129Z 2812/2912 00000KT 3SM BR BKN080
     FM281300 09005KT P6SM FEW040 SCT080
     FM281700 10006KT P6SM BKN050
     FM290000 VRB04KT P6SM FEW040 SCT250
     FM290600 VRB02KT 3SM BR SCT250
     FM290800 VRB02KT 1SM BR SCT250=



000
FTUS41 KILN 281129
TAFDAY
TAF
KDAY 281129Z 2812/2912 07003KT P6SM BKN080
     FM281300 07005KT P6SM FEW040 SCT080
     FM281800 08006KT P6SM BKN050
     FM290000 VRB03KT P6SM FEW040 SCT250
     FM290800 VRB02KT 4SM BR SCT250=



000
FTUS41 KILN 281129
TAFCVG
TAF
KCVG 281129Z 2812/2918 12004KT 5SM BR SCT100
     FM281300 12004KT P6SM SCT080
     FM281700 07005KT P6SM VCSH FEW025 BKN040
     FM290000 VRB04KT P6SM FEW040 SCT250
     FM290600 VRB02KT 4SM BR SCT250
     FM291000 VRB02KT 2SM BR SCT250
     FM291300 VRB03KT P6SM BKN250=



000
FTUS41 KILN 281129
TAFLUK
TAF
KLUK 281129Z 2812/2912 00000KT 1SM BR BKN002
     FM281300 VRB02KT 4SM BR FEW012 SCT080
     FM281500 VRB03KT P6SM SCT250
     FM281700 08004KT P6SM VCSH FEW025 BKN040
     FM290000 VRB02KT P6SM FEW040 SCT250
     FM290600 00000KT 2SM BR SCT250
     FM290800 00000KT 1/4SM FG VV002=



000
FTUS41 KILN 281129
TAFCMH
TAF
KCMH 281129Z 2812/2912 07004KT P6SM SCT080
     FM281700 09005KT P6SM SCT050
     FM290000 VRB03KT P6SM FEW040 SCT250=



000
FTUS41 KILN 281129
TAFLCK
TAF
KLCK 281129Z 2812/2912 07004KT P6SM FEW040 SCT080
     FM281700 09005KT P6SM SCT050
     FM290000 VRB03KT P6SM FEW040 SCT250=



000
FTUS41 KILN 281129
TAFLUK
TAF
KLUK 281129Z 2812/2912 00000KT 1SM BR BKN002
     FM281300 VRB02KT 4SM BR FEW012 SCT080
     FM281500 VRB03KT P6SM SCT250
     FM281700 08004KT P6SM VCSH FEW025 BKN040
     FM290000 VRB02KT P6SM FEW040 SCT250
     FM290600 00000KT 2SM BR SCT250
     FM290800 00000KT 1/4SM FG VV002=



000
FTUS41 KILN 281129
TAFILN
TAF
KILN 281129Z 2812/2912 00000KT 3SM BR BKN080
     FM281300 09005KT P6SM FEW040 SCT080
     FM281700 10006KT P6SM BKN050
     FM290000 VRB04KT P6SM FEW040 SCT250
     FM290600 VRB02KT 3SM BR SCT250
     FM290800 VRB02KT 1SM BR SCT250=



000
FTUS41 KILN 281129
TAFDAY
TAF
KDAY 281129Z 2812/2912 07003KT P6SM BKN080
     FM281300 07005KT P6SM FEW040 SCT080
     FM281800 08006KT P6SM BKN050
     FM290000 VRB03KT P6SM FEW040 SCT250
     FM290800 VRB02KT 4SM BR SCT250=



000
FTUS41 KILN 281129
TAFCVG
TAF
KCVG 281129Z 2812/2918 12004KT 5SM BR SCT100
     FM281300 12004KT P6SM SCT080
     FM281700 07005KT P6SM VCSH FEW025 BKN040
     FM290000 VRB04KT P6SM FEW040 SCT250
     FM290600 VRB02KT 4SM BR SCT250
     FM291000 VRB02KT 2SM BR SCT250
     FM291300 VRB03KT P6SM BKN250=



000
FTUS41 KILN 280900 AAA
TAFCVG
TAF AMD
KCVG 280900Z 2809/2912 VRB03KT 5SM BR BKN250
     FM281200 VRB04KT P6SM SCT250
     FM281700 07005KT P6SM VCSH FEW025 BKN040
     FM290000 VRB04KT P6SM FEW040 SCT250
     FM290600 VRB02KT 4SM BR SCT250
     FM291000 VRB02KT 2SM BR SCT250=



000
FTUS41 KILN 280900 AAA
TAFCVG
TAF AMD
KCVG 280900Z 2809/2912 VRB03KT 5SM BR BKN250
     FM281200 VRB04KT P6SM SCT250
     FM281700 07005KT P6SM VCSH FEW025 BKN040
     FM290000 VRB04KT P6SM FEW040 SCT250
     FM290600 VRB02KT 4SM BR SCT250
     FM291000 VRB02KT 2SM BR SCT250=



000
FTUS41 KILN 280703 AAA
TAFILN
TAF AMD
KILN 280703Z 2807/2906 00000KT 3SM BR FEW040 SCT250
      TEMPO 2809/2812 1SM BR
     FM281300 09005KT P6SM FEW040 SCT250
     FM281700 10006KT P6SM BKN050
     FM290000 VRB04KT P6SM FEW040 SCT250=



000
FTUS41 KILN 280703 AAA
TAFILN
TAF AMD
KILN 280703Z 2807/2906 00000KT 3SM BR FEW040 SCT250
      TEMPO 2809/2812 1SM BR
     FM281300 09005KT P6SM FEW040 SCT250
     FM281700 10006KT P6SM BKN050
     FM290000 VRB04KT P6SM FEW040 SCT250=



000
FTUS41 KILN 280536
TAFLUK
TAF
KLUK 280536Z 2806/2906 00000KT 2SM BR BKN250
      TEMPO 2806/2808 3/4SM BR
     FM280800 00000KT 1SM BR SCT002
      TEMPO 2809/2812 1/2SM FG VV002
     FM281300 VRB02KT 5SM BR FEW012 SCT250
     FM281500 VRB03KT P6SM SCT250
     FM281700 08004KT P6SM VCSH FEW025 BKN040
     FM290000 VRB02KT P6SM FEW040 SCT250=



000
FTUS41 KILN 280536
TAFILN
TAF
KILN 280536Z 2806/2906 00000KT 6SM BR BKN090
     FM280800 07003KT 3SM BR FEW040 SCT250
      TEMPO 2809/2812 1SM BR
     FM281300 09005KT P6SM FEW040 SCT250
     FM281700 10006KT P6SM BKN050
     FM290000 VRB04KT P6SM FEW040 SCT250=



000
FTUS41 KILN 280536
TAFLCK
TAF
KLCK 280536Z 2806/2906 VRB03KT P6SM BKN250
      TEMPO 2806/2808 BKN060
     FM281000 07004KT P6SM FEW040 SCT250
     FM281700 09005KT P6SM SCT050
     FM290000 VRB03KT P6SM FEW040 SCT250=



000
FTUS41 KILN 280536
TAFDAY
TAF
KDAY 280536Z 2806/2906 06004KT P6SM BKN090
     FM281000 07003KT 4SM BR SCT250
     FM281300 07005KT P6SM FEW040 SCT250
     FM281800 08006KT P6SM BKN050
     FM290000 VRB04KT P6SM FEW040 SCT250=



000
FTUS41 KILN 280536
TAFCVG
TAF
KCVG 280536Z 2806/2912 10004KT P6SM FEW045 BKN250
     FM280900 VRB03KT 5SM BR BKN250
     FM281200 VRB04KT P6SM SCT250
     FM281700 07005KT P6SM VCSH FEW025 BKN040
     FM290000 VRB04KT P6SM FEW040 SCT250
     FM290600 VRB02KT 4SM BR SCT250
     FM291000 VRB02KT 2SM BR SCT250=



000
FTUS41 KILN 280536
TAFCMH
TAF
KCMH 280536Z 2806/2906 VRB03KT P6SM BKN250
     FM281000 07004KT P6SM FEW040 SCT250
     FM281700 09005KT P6SM SCT050
     FM290000 VRB03KT P6SM FEW040 SCT250=



000
FTUS41 KILN 280202 AAA
TAFLUK
TAF AMD
KLUK 280202Z 2802/2824 07003KT 6SM BR FEW050 BKN250
     FM280300 07003KT 3SM BR FEW045 BKN250
     FM280600 00000KT 1SM BR FEW020 SCT250
      TEMPO 2809/2812 1/2SM FG VV002
     FM281300 VRB03KT 5SM BR FEW012 SCT250
     FM281700 12006KT P6SM VCSH FEW025 BKN040=



000
FTUS41 KILN 280202 AAB
TAFDAY
TAF AMD
KDAY 280202Z 2802/2824 06005KT P6SM FEW110 SCT250
     FM280600 07003KT 4SM BR FEW040 SCT250
     FM281300 07005KT P6SM FEW040 SCT250
     FM281800 08006KT P6SM BKN050=



000
FTUS41 KILN 280202 AAB
TAFILN
TAF AMD
KILN 280202Z 2802/2824 04005KT P6SM VCSH SCT029 BKN045
     FM280500 07003KT 3SM BR FEW040 SCT250
      TEMPO 2809/2812 2SM BR
     FM281300 09005KT P6SM FEW040 SCT250
     FM281700 10006KT P6SM BKN050=



000
FTUS41 KILN 280202 AAA
TAFLCK
TAF AMD
KLCK 280202Z 2802/2824 06004KT P6SM FEW060 SCT120
     FM280700 05003KT 4SM BR SCT250
     FM281300 09005KT P6SM FEW040 SCT250=



000
FTUS41 KILN 280202 AAA
TAFCMH
TAF AMD
KCMH 280202Z 2802/2824 06004KT P6SM FEW060 SCT120
     FM280800 05003KT 5SM BR SCT250
     FM281300 09005KT P6SM FEW040 SCT250=



000
FTUS41 KILN 280202 AAB
TAFILN
TAF AMD
KILN 280202Z 2802/2824 04005KT P6SM VCSH SCT029 BKN045
     FM280500 07003KT 3SM BR FEW040 SCT250
      TEMPO 2809/2812 2SM BR
     FM281300 09005KT P6SM FEW040 SCT250
     FM281700 10006KT P6SM BKN050=



000
FTUS41 KILN 280202 AAA
TAFCVG
TAF AMD
KCVG 280202Z 2802/2906 07005KT P6SM FEW045 BKN250
     FM280600 07003KT 5SM BR FEW040 BKN250
     FM280900 VRB03KT 1SM BR SCT250
     FM281300 10005KT P6SM SCT250
     FM281700 12006KT P6SM VCSH FEW025 BKN040
     FM290000 VRB04KT P6SM FEW040 SCT250=



000
FTUS41 KILN 280202 AAA
TAFLUK
TAF AMD
KLUK 280202Z 2802/2824 07003KT 6SM BR FEW050 BKN250
     FM280300 07003KT 3SM BR FEW045 BKN250
     FM280600 00000KT 1SM BR FEW020 SCT250
      TEMPO 2809/2812 1/2SM FG VV002
     FM281300 VRB03KT 5SM BR FEW012 SCT250
     FM281700 12006KT P6SM VCSH FEW025 BKN040=



000
FTUS41 KILN 280202 AAA
TAFCMH
TAF AMD
KCMH 280202Z 2802/2824 06004KT P6SM FEW060 SCT120
     FM280800 05003KT 5SM BR SCT250
     FM281300 09005KT P6SM FEW040 SCT250=



000
FTUS41 KILN 280202 AAA
TAFLCK
TAF AMD
KLCK 280202Z 2802/2824 06004KT P6SM FEW060 SCT120
     FM280700 05003KT 4SM BR SCT250
     FM281300 09005KT P6SM FEW040 SCT250=



000
FTUS41 KILN 280202 AAB
TAFDAY
TAF AMD
KDAY 280202Z 2802/2824 06005KT P6SM FEW110 SCT250
     FM280600 07003KT 4SM BR FEW040 SCT250
     FM281300 07005KT P6SM FEW040 SCT250
     FM281800 08006KT P6SM BKN050=



000
FTUS41 KILN 280202 AAA
TAFCVG
TAF AMD
KCVG 280202Z 2802/2906 07005KT P6SM FEW045 BKN250
     FM280600 07003KT 5SM BR FEW040 BKN250
     FM280900 VRB03KT 1SM BR SCT250
     FM281300 10005KT P6SM SCT250
     FM281700 12006KT P6SM VCSH FEW025 BKN040
     FM290000 VRB04KT P6SM FEW040 SCT250=



000
FTUS41 KILN 272355 AAA
TAFDAY
TAF AMD
KDAY 272355Z 2800/2824 05006KT P6SM VCSH FEW060 BKN120
     FM280600 07003KT 4SM BR FEW040 SCT250
     FM281300 07005KT P6SM FEW040 SCT250
     FM281800 08006KT P6SM BKN050=



000
FTUS41 KILN 272354 AAA
TAFILN
TAF AMD
KILN 272354Z 2800/2824 06005KT P6SM VCSH FEW040 BKN120
     FM280600 07003KT 3SM BR FEW040 SCT250
      TEMPO 2809/2812 2SM BR
     FM281300 09005KT P6SM FEW040 SCT250
     FM281700 10006KT P6SM BKN050=



000
FTUS41 KILN 272331
TAFLUK
TAF
KLUK 272331Z 2800/2824 07004KT P6SM VCSH SCT040 BKN150
     FM280200 07003KT 4SM BR SCT040 BKN100
     FM280800 00000KT 1SM BR FEW020 SCT250
      TEMPO 2809/2812 1/2SM FG VV002
     FM281300 VRB03KT 5SM BR FEW012 SCT250
     FM281700 12006KT P6SM VCSH FEW025 BKN040=



000
FTUS41 KILN 272331
TAFDAY
TAF
KDAY 272331Z 2800/2824 05005KT P6SM FEW060 BKN120
     FM280600 07003KT 4SM BR FEW040 SCT250
     FM281300 07005KT P6SM FEW040 SCT250
     FM281800 08006KT P6SM BKN050=



000
FTUS41 KILN 272331
TAFCVG
TAF
KCVG 272331Z 2800/2906 07003KT P6SM VCSH SCT035 BKN150
     FM280300 07003KT 5SM BR SCT040 BKN100
     FM280900 VRB03KT 1SM BR SCT250
     FM281300 10005KT P6SM SCT250
     FM281700 12006KT P6SM VCSH FEW025 BKN040
     FM290000 VRB04KT P6SM FEW040 SCT250=



000
FTUS41 KILN 272331
TAFLUK
TAF
KLUK 272331Z 2800/2824 07004KT P6SM VCSH SCT040 BKN150
     FM280200 07003KT 4SM BR SCT040 BKN100
     FM280800 00000KT 1SM BR FEW020 SCT250
      TEMPO 2809/2812 1/2SM FG VV002
     FM281300 VRB03KT 5SM BR FEW012 SCT250
     FM281700 12006KT P6SM VCSH FEW025 BKN040=



000
FTUS41 KILN 272331
TAFCMH
TAF
KCMH 272331Z 2800/2824 06007KT P6SM VCSH SCT035 BKN100
      TEMPO 2800/2802 5SM -SHRA BR OVC035
     FM280200 06004KT P6SM FEW060 BKN120
     FM280800 05003KT 5SM BR SCT250
     FM281300 09005KT P6SM FEW040 SCT250=



000
FTUS41 KILN 272331
TAFILN
TAF
KILN 272331Z 2800/2824 06005KT P6SM FEW040 BKN120
     FM280600 07003KT 3SM BR FEW040 SCT250
      TEMPO 2809/2812 2SM BR
     FM281300 09005KT P6SM FEW040 SCT250
     FM281700 10006KT P6SM BKN050=



000
FTUS41 KILN 272331
TAFLCK
TAF
KLCK 272331Z 2800/2824 06004KT P6SM VCSH SCT035 BKN100
      TEMPO 2800/2802 5SM -SHRA BR OVC035
     FM280200 06004KT P6SM FEW060 BKN120
     FM280700 05003KT 4SM BR SCT250
     FM281300 09005KT P6SM FEW040 SCT250=



000
FTUS41 KILN 272331
TAFDAY
TAF
KDAY 272331Z 2800/2824 05005KT P6SM FEW060 BKN120
     FM280600 07003KT 4SM BR FEW040 SCT250
     FM281300 07005KT P6SM FEW040 SCT250
     FM281800 08006KT P6SM BKN050=



000
FTUS41 KILN 272331
TAFLCK
TAF
KLCK 272331Z 2800/2824 06004KT P6SM VCSH SCT035 BKN100
      TEMPO 2800/2802 5SM -SHRA BR OVC035
     FM280200 06004KT P6SM FEW060 BKN120
     FM280700 05003KT 4SM BR SCT250
     FM281300 09005KT P6SM FEW040 SCT250=



000
FTUS41 KILN 272331
TAFILN
TAF
KILN 272331Z 2800/2824 06005KT P6SM FEW040 BKN120
     FM280600 07003KT 3SM BR FEW040 SCT250
      TEMPO 2809/2812 2SM BR
     FM281300 09005KT P6SM FEW040 SCT250
     FM281700 10006KT P6SM BKN050=



000
FTUS41 KILN 272331
TAFCVG
TAF
KCVG 272331Z 2800/2906 07003KT P6SM VCSH SCT035 BKN150
     FM280300 07003KT 5SM BR SCT040 BKN100
     FM280900 VRB03KT 1SM BR SCT250
     FM281300 10005KT P6SM SCT250
     FM281700 12006KT P6SM VCSH FEW025 BKN040
     FM290000 VRB04KT P6SM FEW040 SCT250=



000
FTUS41 KILN 272331
TAFCMH
TAF
KCMH 272331Z 2800/2824 06007KT P6SM VCSH SCT035 BKN100
      TEMPO 2800/2802 5SM -SHRA BR OVC035
     FM280200 06004KT P6SM FEW060 BKN120
     FM280800 05003KT 5SM BR SCT250
     FM281300 09005KT P6SM FEW040 SCT250=



000
FTUS41 KILN 272218 AAB
TAFLCK
TAF AMD
KLCK 272218Z 2722/2818 06004KT P6SM VCSH SCT035 BKN100
      TEMPO 2722/2724 5SM -SHRA OVC035
     FM280000 06004KT P6SM FEW040 BKN120
     FM280700 05003KT 5SM BR FEW040 SCT250
     FM281300 09005KT P6SM FEW040 SCT250=



000
FTUS41 KILN 272218 AAB
TAFCMH
TAF AMD
KCMH 272218Z 2722/2818 06004KT P6SM VCSH SCT035 BKN100
      TEMPO 2722/2724 5SM -SHRA OVC035
     FM280000 06004KT P6SM FEW040 BKN120
     FM280700 05003KT 5SM BR FEW040 SCT250
     FM281300 09005KT P6SM FEW040 SCT250=



000
FTUS41 KILN 272218 AAB
TAFLCK
TAF AMD
KLCK 272218Z 2722/2818 06004KT P6SM VCSH SCT035 BKN100
      TEMPO 2722/2724 5SM -SHRA OVC035
     FM280000 06004KT P6SM FEW040 BKN120
     FM280700 05003KT 5SM BR FEW040 SCT250
     FM281300 09005KT P6SM FEW040 SCT250=



000
FTUS41 KILN 272218 AAB
TAFCMH
TAF AMD
KCMH 272218Z 2722/2818 06004KT P6SM VCSH SCT035 BKN100
      TEMPO 2722/2724 5SM -SHRA OVC035
     FM280000 06004KT P6SM FEW040 BKN120
     FM280700 05003KT 5SM BR FEW040 SCT250
     FM281300 09005KT P6SM FEW040 SCT250=



000
FTUS41 KILN 272215 AAA
TAFDAY
TAF AMD
KDAY 272215Z 2722/2818 05007KT P6SM VCSH FEW025 BKN035
      TEMPO 2722/2724 5SM -SHRA BR BKN025
     FM280000 07004KT P6SM FEW040 BKN120
     FM280600 07003KT 5SM BR FEW040 SCT250
     FM281300 09005KT P6SM FEW040 SCT250=



000
FTUS41 KILN 272215 AAB
TAFILN
TAF AMD
KILN 272215Z 2722/2818 08006KT P6SM VCSH BKN035
     FM280000 07004KT P6SM FEW040 BKN120
     FM280600 07003KT 5SM BR FEW040 SCT250
     FM281300 09005KT P6SM FEW040 SCT250=



000
FTUS41 KILN 272213 AAA
TAFLUK
TAF AMD
KLUK 272213Z 2722/2818 07003KT P6SM VCSH SCT025 BKN040
     FM280000 07004KT P6SM VCSH BKN040
     FM280200 07003KT 4SM BR SCT040 BKN100
     FM280800 00000KT 1SM BR FEW020 SCT250
      TEMPO 2810/2812 1/2SM FG SCT002
     FM281300 VRB03KT P6SM FEW020 SCT250=



000
FTUS41 KILN 272213 AAA
TAFLUK
TAF AMD
KLUK 272213Z 2722/2818 07003KT P6SM VCSH SCT025 BKN040
     FM280000 07004KT P6SM VCSH BKN040
     FM280200 07003KT 4SM BR SCT040 BKN100
     FM280800 00000KT 1SM BR FEW020 SCT250
      TEMPO 2810/2812 1/2SM FG SCT002
     FM281300 VRB03KT P6SM FEW020 SCT250=



000
FTUS41 KILN 272204 AAA
TAFCVG
TAF AMD
KCVG 272204Z 2722/2824 07003KT P6SM VCSH SCT025 BKN040
     FM280300 07003KT 5SM BR SCT040 BKN100
     FM280900 VRB03KT 1SM BR FEW020 SCT250
     FM281300 VRB03KT P6SM FEW020 SCT250
     FM281900 07004KT P6SM FEW025 BKN040=



000
FTUS41 KILN 271857 AAA
TAFCMH
TAF AMD
KCMH 271857Z 2719/2818 07004KT P6SM VCSH SCT035 BKN100
      TEMPO 2719/2720 5SM -SHRA
     FM272200 06004KT P6SM FEW040 BKN120
     FM280700 05003KT 5SM BR FEW040 SCT250
     FM281300 09005KT P6SM FEW040 SCT250=



000
FTUS41 KILN 271857 AAA
TAFLCK
TAF AMD
KLCK 271857Z 2719/2818 07004KT P6SM VCSH SCT035 BKN100
      TEMPO 2719/2720 5SM -SHRA
     FM272200 06004KT P6SM FEW040 BKN120
     FM280700 05003KT 5SM BR FEW040 SCT250
     FM281300 09005KT P6SM FEW040 SCT250=



000
FTUS41 KILN 271857 AAA
TAFCMH
TAF AMD
KCMH 271857Z 2719/2818 07004KT P6SM VCSH SCT035 BKN100
      TEMPO 2719/2720 5SM -SHRA
     FM272200 06004KT P6SM FEW040 BKN120
     FM280700 05003KT 5SM BR FEW040 SCT250
     FM281300 09005KT P6SM FEW040 SCT250=



000
FTUS41 KILN 271857 AAA
TAFLCK
TAF AMD
KLCK 271857Z 2719/2818 07004KT P6SM VCSH SCT035 BKN100
      TEMPO 2719/2720 5SM -SHRA
     FM272200 06004KT P6SM FEW040 BKN120
     FM280700 05003KT 5SM BR FEW040 SCT250
     FM281300 09005KT P6SM FEW040 SCT250=



000
FTUS41 KILN 271720
TAFCMH
TAF
KCMH 271720Z 2718/2818 07004KT P6SM VCSH SCT035 BKN100
      TEMPO 2718/2719 5SM -RA BKN025
     FM272200 06004KT P6SM FEW040 BKN120
     FM280700 05003KT 5SM BR FEW040 SCT250
     FM281300 09005KT P6SM FEW040 SCT250=



000
FTUS41 KILN 271720
TAFILN
TAF
KILN 271720Z 2718/2818 VRB03KT 5SM BR VCSH SCT025 BKN150
      TEMPO 2718/2719 2SM -SHRA FEW008 BKN018
     FM271900 08006KT P6SM VCSH BKN035
      TEMPO 2719/2722 5SM -SHRA BKN025
     FM280000 07004KT P6SM FEW040 BKN120
     FM280600 07003KT 5SM BR FEW040 SCT250
     FM281300 09005KT P6SM FEW040 SCT250=



000
FTUS41 KILN 271720
TAFDAY
TAF
KDAY 271720Z 2718/2818 08006KT P6SM VCSH FEW012 BKN025
      TEMPO 2718/2719 5SM -SHRA FEW008 BKN018
     FM271900 08006KT P6SM VCSH BKN035
      TEMPO 2719/2721 5SM -SHRA BKN025
     FM272300 07004KT P6SM FEW040 BKN120
     FM280600 07003KT 5SM BR FEW040 SCT250
     FM281300 09005KT P6SM FEW040 SCT250=



000
FTUS41 KILN 271720
TAFLCK
TAF
KLCK 271720Z 2718/2818 07004KT P6SM VCSH SCT035 BKN100
      TEMPO 2718/2719 5SM -RA BKN025
     FM272200 06004KT P6SM FEW040 BKN120
     FM280700 05003KT 5SM BR FEW040 SCT250
     FM281300 09005KT P6SM FEW040 SCT250=



000
FTUS41 KILN 271720
TAFCVG
TAF
KCVG 271720Z 2718/2824 VRB03KT P6SM VCSH SCT020 BKN040
      TEMPO 2718/2719 BKN022
     FM271900 07003KT P6SM VCSH SCT025 BKN040
      TEMPO 2719/2723 5SM -SHRA BKN025
     FM280000 07004KT P6SM VCSH BKN040
     FM280300 07003KT 5SM BR SCT040 BKN100
     FM280900 VRB03KT 1SM BR FEW020 SCT250
     FM281300 VRB03KT P6SM FEW020 SCT250
     FM281900 07004KT P6SM FEW025 BKN040=



000
FTUS41 KILN 271720
TAFLUK
TAF
KLUK 271720Z 2718/2818 VRB03KT P6SM VCSH SCT020 BKN040
      TEMPO 2718/2719 BKN025
     FM271900 07003KT P6SM VCSH SCT025 BKN040
      TEMPO 2719/2723 5SM -SHRA BKN025
     FM280000 07004KT P6SM VCSH BKN040
     FM280200 07003KT 4SM BR SCT040 BKN100
     FM280800 00000KT 1SM BR FEW020 SCT250
      TEMPO 2810/2812 1/2SM FG SCT002
     FM281300 VRB03KT P6SM FEW020 SCT250=



000
FTUS41 KILN 271659 AAC
TAFCVG
TAF AMD
KCVG 271659Z 2717/2818 VRB03KT P6SM VCSH SCT020 BKN040
      TEMPO 2717/2719 BKN022
     FM271900 07003KT P6SM VCSH SCT025 BKN040
      TEMPO 2719/2723 5SM -SHRA BKN025
     FM280000 07004KT P6SM VCSH BKN040
     FM280300 07003KT 5SM BR SCT040 BKN100
     FM280900 VRB03KT 1SM BR FEW040 SCT250
     FM281200 VRB03KT P6SM FEW040 SCT250=



000
FTUS41 KILN 271659 AAC
TAFLUK
TAF AMD
KLUK 271659Z 2717/2812 VRB03KT P6SM VCSH SCT020 BKN040
      TEMPO 2717/2719 BKN025
     FM271900 07003KT P6SM VCSH SCT025 BKN040
      TEMPO 2719/2723 5SM -SHRA BKN025
     FM280000 07004KT P6SM VCSH BKN040
     FM280200 07003KT 4SM BR SCT040 BKN100
     FM280800 00000KT 1SM BR FEW040 SCT250
      TEMPO 2810/2812 1/2SM FG SCT002=



000
FTUS41 KILN 271659 AAC
TAFLUK
TAF AMD
KLUK 271659Z 2717/2812 VRB03KT P6SM VCSH SCT020 BKN040
      TEMPO 2717/2719 BKN025
     FM271900 07003KT P6SM VCSH SCT025 BKN040
      TEMPO 2719/2723 5SM -SHRA BKN025
     FM280000 07004KT P6SM VCSH BKN040
     FM280200 07003KT 4SM BR SCT040 BKN100
     FM280800 00000KT 1SM BR FEW040 SCT250
      TEMPO 2810/2812 1/2SM FG SCT002=



000
FTUS41 KILN 271659 AAC
TAFCVG
TAF AMD
KCVG 271659Z 2717/2818 VRB03KT P6SM VCSH SCT020 BKN040
      TEMPO 2717/2719 BKN022
     FM271900 07003KT P6SM VCSH SCT025 BKN040
      TEMPO 2719/2723 5SM -SHRA BKN025
     FM280000 07004KT P6SM VCSH BKN040
     FM280300 07003KT 5SM BR SCT040 BKN100
     FM280900 VRB03KT 1SM BR FEW040 SCT250
     FM281200 VRB03KT P6SM FEW040 SCT250=



000
FTUS41 KILN 271648 AAB
TAFDAY
TAF AMD
KDAY 271648Z 2717/2812 08006KT P6SM VCSH FEW012 BKN025
      TEMPO 2717/2719 5SM -SHRA FEW008 BKN018
     FM271900 08006KT P6SM VCSH BKN035
      TEMPO 2719/2721 5SM -SHRA BKN025
     FM272300 07004KT P6SM FEW040 BKN120
     FM280500 07003KT 5SM BR FEW040 SCT250=



000
FTUS41 KILN 271648 AAC
TAFILN
TAF AMD
KILN 271648Z 2717/2812 VRB03KT 5SM BR VCSH SCT025 BKN150
      TEMPO 2717/2719 2SM -SHRA FEW008 BKN018
     FM271900 08006KT P6SM VCSH BKN035
      TEMPO 2719/2722 5SM -SHRA BKN025
     FM280000 07004KT P6SM FEW040 BKN120
     FM280500 07003KT 5SM BR FEW040 SCT250=



000
FTUS41 KILN 271643 AAB
TAFLCK
TAF AMD
KLCK 271643Z 2717/2812 07004KT P6SM VCSH SCT035 BKN100
      TEMPO 2717/2719 5SM -RA BKN025
     FM272200 06004KT P6SM FEW040 BKN120
     FM280500 05003KT 5SM BR FEW040 SCT250=



000
FTUS41 KILN 271643 AAB
TAFCMH
TAF AMD
KCMH 271643Z 2717/2812 07004KT P6SM VCSH SCT035 BKN100
      TEMPO 2717/2719 5SM -RA BKN025
     FM272200 06004KT P6SM FEW040 BKN120
     FM280500 05003KT 5SM BR FEW040 SCT250=



000
FTUS41 KILN 271453 AAB
TAFCVG
TAF AMD
KCVG 271453Z 2715/2818 VRB03KT 5SM BR FEW005 BKN018
      TEMPO 2715/2716 2SM BR BKN015
     FM271600 VRB03KT P6SM VCSH SCT010 BKN040
      TEMPO 2718/2722 5SM -RA BKN025 OVC040
     FM272200 05004KT 5SM BR VCSH BKN040
     FM280100 09004KT 5SM BR FEW025 BKN100
      TEMPO 2808/2812 1SM BR SCT020
     FM281200 VRB03KT P6SM SCT025=



000
FTUS41 KILN 271453 AAB
TAFCVG
TAF AMD
KCVG 271453Z 2715/2818 VRB03KT 5SM BR FEW005 BKN018
      TEMPO 2715/2716 2SM BR BKN015
     FM271600 VRB03KT P6SM VCSH SCT010 BKN040
      TEMPO 2718/2722 5SM -RA BKN025 OVC040
     FM272200 05004KT 5SM BR VCSH BKN040
     FM280100 09004KT 5SM BR FEW025 BKN100
      TEMPO 2808/2812 1SM BR SCT020
     FM281200 VRB03KT P6SM SCT025=



000
FTUS41 KILN 271453 AAB
TAFLUK
TAF AMD
KLUK 271453Z 2715/2812 VRB03KT 5SM BR FEW005 BKN025
      TEMPO 2715/2716 3SM BR BKN018
     FM271600 VRB03KT P6SM VCSH SCT012 BKN050
      TEMPO 2718/2722 5SM -RA BKN030 OVC040
     FM272200 05004KT 5SM BR VCSH BKN040
     FM280100 09004KT 5SM BR FEW030 BKN100
      TEMPO 2803/2806 2SM BR SKC=



000
FTUS41 KILN 271453 AAB
TAFLUK
TAF AMD
KLUK 271453Z 2715/2812 VRB03KT 5SM BR FEW005 BKN025
      TEMPO 2715/2716 3SM BR BKN018
     FM271600 VRB03KT P6SM VCSH SCT012 BKN050
      TEMPO 2718/2722 5SM -RA BKN030 OVC040
     FM272200 05004KT 5SM BR VCSH BKN040
     FM280100 09004KT 5SM BR FEW030 BKN100
      TEMPO 2803/2806 2SM BR SKC=



000
FTUS41 KILN 271348 AAA
TAFLCK
TAF AMD
KLCK 271348Z 2714/2812 06003KT P6SM FEW040 BKN100
      TEMPO 2714/2716 4SM -RA BKN040
     FM271600 07004KT P6SM VCSH SCT025 BKN120
      TEMPO 2716/2720 4SM -RA BKN030
     FM272200 02004KT P6SM FEW025 BKN150
      TEMPO 2800/2802 00000KT 5SM BR SKC
     FM280200 04002KT 5SM BR FEW030=



000
FTUS41 KILN 271348 AAA
TAFCMH
TAF AMD
KCMH 271348Z 2714/2812 06003KT P6SM FEW040 BKN100
      TEMPO 2714/2716 4SM -RA BKN040
     FM271600 07004KT P6SM VCSH SCT025 BKN120
      TEMPO 2716/2720 4SM -RA BKN030
     FM272200 02004KT P6SM FEW025 BKN150
      TEMPO 2800/2802 00000KT 5SM BR SKC
     FM280200 04002KT 5SM BR FEW030=



000
FTUS41 KILN 271317 AAA
TAFDAY
TAF AMD
KDAY 271317Z 2713/2812 00000KT 4SM BR VCSH FEW004 BKN025
      TEMPO 2713/2715 2SM -RA BR BKN004
     FM271500 12005KT P6SM VCSH SCT025 BKN150
      TEMPO 2716/2720 4SM -RA OVC025
     FM280000 05003KT 5SM BR FEW030 SCT150
     FM280500 07002KT 5SM BR SKC=



000
FTUS41 KILN 271317 AAA
TAFDAY
TAF AMD
KDAY 271317Z 2713/2812 00000KT 4SM BR VCSH FEW004 BKN025
      TEMPO 2713/2715 2SM -RA BR BKN004
     FM271500 12005KT P6SM VCSH SCT025 BKN150
      TEMPO 2716/2720 4SM -RA OVC025
     FM280000 05003KT 5SM BR FEW030 SCT150
     FM280500 07002KT 5SM BR SKC=



000
FTUS41 KILN 271256 AAA
TAFLUK
TAF AMD
KLUK 271256Z 2713/2812 VRB03KT 5SM BR FEW005 BKN025
      TEMPO 2713/2716 3SM BR BKN008
     FM271600 VRB03KT P6SM VCSH SCT012 BKN050
      TEMPO 2718/2722 5SM -RA BKN030 OVC040
     FM272200 05004KT 5SM BR VCSH BKN040
     FM280100 09004KT 5SM BR FEW030 BKN100
      TEMPO 2803/2806 2SM BR SKC=



000
FTUS41 KILN 271256 AAA
TAFCVG
TAF AMD
KCVG 271256Z 2713/2818 VRB03KT 5SM BR FEW005 BKN018
      TEMPO 2713/2716 2SM BR BKN004
     FM271600 VRB03KT P6SM VCSH SCT010 BKN040
      TEMPO 2718/2722 5SM -RA BKN025 OVC040
     FM272200 05004KT 5SM BR VCSH BKN040
     FM280100 09004KT 5SM BR FEW025 BKN100
      TEMPO 2808/2812 1SM BR SCT020
     FM281200 VRB03KT P6SM SCT025=



000
FTUS41 KILN 271256 AAA
TAFLUK
TAF AMD
KLUK 271256Z 2713/2812 VRB03KT 5SM BR FEW005 BKN025
      TEMPO 2713/2716 3SM BR BKN008
     FM271600 VRB03KT P6SM VCSH SCT012 BKN050
      TEMPO 2718/2722 5SM -RA BKN030 OVC040
     FM272200 05004KT 5SM BR VCSH BKN040
     FM280100 09004KT 5SM BR FEW030 BKN100
      TEMPO 2803/2806 2SM BR SKC=



000
FTUS41 KILN 271256 AAA
TAFCVG
TAF AMD
KCVG 271256Z 2713/2818 VRB03KT 5SM BR FEW005 BKN018
      TEMPO 2713/2716 2SM BR BKN004
     FM271600 VRB03KT P6SM VCSH SCT010 BKN040
      TEMPO 2718/2722 5SM -RA BKN025 OVC040
     FM272200 05004KT 5SM BR VCSH BKN040
     FM280100 09004KT 5SM BR FEW025 BKN100
      TEMPO 2808/2812 1SM BR SCT020
     FM281200 VRB03KT P6SM SCT025=



000
FTUS41 KILN 271120
TAFCVG
TAF
KCVG 271120Z 2712/2818 VRB03KT 5SM BR SCT025 OVC100
      TEMPO 2712/2713 2SM BR SCT005 OVC025
     FM271400 VRB03KT P6SM VCSH SCT010 BKN040
      TEMPO 2718/2722 5SM -RA BKN025 OVC040
     FM272200 05004KT 5SM BR VCSH BKN040
     FM280100 09004KT 5SM BR FEW025 BKN100
      TEMPO 2808/2812 1SM BR SCT020
     FM281200 VRB03KT P6SM SCT025=



000
FTUS41 KILN 271120
TAFLCK
TAF
KLCK 271120Z 2712/2812 03003KT P6SM FEW040 BKN100
      TEMPO 2712/2714 4SM -RA BR BKN040
     FM271400 07004KT P6SM VCSH SCT025 BKN120
      TEMPO 2716/2720 4SM -RA BKN030
     FM272200 02004KT P6SM FEW025 BKN150
      TEMPO 2800/2802 00000KT 5SM BR SKC
     FM280200 04002KT 5SM BR FEW030=



000
FTUS41 KILN 271120
TAFLUK
TAF
KLUK 271120Z 2712/2812 VRB03KT 5SM BR SCT040 OVC100
      TEMPO 2712/2713 2SM BR SCT015 OVC030
     FM271400 VRB03KT P6SM VCSH SCT012 BKN050
      TEMPO 2718/2722 5SM -RA BKN030 OVC040
     FM272200 05004KT 5SM BR VCSH BKN040
     FM280100 09004KT 5SM BR FEW030 BKN100
      TEMPO 2803/2806 2SM BR SKC=



000
FTUS41 KILN 271120
TAFILN
TAF
KILN 271120Z 2712/2812 00000KT P6SM VCSH SCT030 BKN100
      TEMPO 2712/2714 5SM -RA BR BKN030
     FM271400 12005KT P6SM VCSH SCT025 BKN150
      TEMPO 2716/2720 4SM -RA OVC025
     FM280000 05003KT 5SM BR FEW030 SCT150
     FM280500 07002KT 5SM BR SKC=



000
FTUS41 KILN 271120
TAFLCK
TAF
KLCK 271120Z 2712/2812 03003KT P6SM FEW040 BKN100
      TEMPO 2712/2714 4SM -RA BR BKN040
     FM271400 07004KT P6SM VCSH SCT025 BKN120
      TEMPO 2716/2720 4SM -RA BKN030
     FM272200 02004KT P6SM FEW025 BKN150
      TEMPO 2800/2802 00000KT 5SM BR SKC
     FM280200 04002KT 5SM BR FEW030=



000
FTUS41 KILN 271120
TAFDAY
TAF
KDAY 271120Z 2712/2812 00000KT 4SM -RA SCT020 BKN040
      TEMPO 2712/2715 2SM -RA BR BKN025
     FM271500 12005KT P6SM VCSH SCT025 BKN150
      TEMPO 2716/2720 4SM -RA OVC025
     FM280000 05003KT 5SM BR FEW030 SCT150
     FM280500 07002KT 5SM BR SKC=



000
FTUS41 KILN 271120
TAFILN
TAF
KILN 271120Z 2712/2812 00000KT P6SM VCSH SCT030 BKN100
      TEMPO 2712/2714 5SM -RA BR BKN030
     FM271400 12005KT P6SM VCSH SCT025 BKN150
      TEMPO 2716/2720 4SM -RA OVC025
     FM280000 05003KT 5SM BR FEW030 SCT150
     FM280500 07002KT 5SM BR SKC=



000
FTUS41 KILN 271120
TAFCMH
TAF
KCMH 271120Z 2712/2812 03003KT P6SM FEW040 BKN100
      TEMPO 2712/2714 4SM -RA BR BKN040
     FM271400 07004KT P6SM VCSH SCT025 BKN120
      TEMPO 2716/2720 4SM -RA BKN030
     FM272200 02004KT P6SM FEW025 BKN150
      TEMPO 2800/2802 00000KT 5SM BR SKC
     FM280200 04002KT 5SM BR FEW030=



000
FTUS41 KILN 271120
TAFDAY
TAF
KDAY 271120Z 2712/2812 00000KT 4SM -RA SCT020 BKN040
      TEMPO 2712/2715 2SM -RA BR BKN025
     FM271500 12005KT P6SM VCSH SCT025 BKN150
      TEMPO 2716/2720 4SM -RA OVC025
     FM280000 05003KT 5SM BR FEW030 SCT150
     FM280500 07002KT 5SM BR SKC=



000
FTUS41 KILN 271120
TAFCVG
TAF
KCVG 271120Z 2712/2818 VRB03KT 5SM BR SCT025 OVC100
      TEMPO 2712/2713 2SM BR SCT005 OVC025
     FM271400 VRB03KT P6SM VCSH SCT010 BKN040
      TEMPO 2718/2722 5SM -RA BKN025 OVC040
     FM272200 05004KT 5SM BR VCSH BKN040
     FM280100 09004KT 5SM BR FEW025 BKN100
      TEMPO 2808/2812 1SM BR SCT020
     FM281200 VRB03KT P6SM SCT025=



000
FTUS41 KILN 271120
TAFCMH
TAF
KCMH 271120Z 2712/2812 03003KT P6SM FEW040 BKN100
      TEMPO 2712/2714 4SM -RA BR BKN040
     FM271400 07004KT P6SM VCSH SCT025 BKN120
      TEMPO 2716/2720 4SM -RA BKN030
     FM272200 02004KT P6SM FEW025 BKN150
      TEMPO 2800/2802 00000KT 5SM BR SKC
     FM280200 04002KT 5SM BR FEW030=



000
FTUS41 KILN 271120
TAFLUK
TAF
KLUK 271120Z 2712/2812 VRB03KT 5SM BR SCT040 OVC100
      TEMPO 2712/2713 2SM BR SCT015 OVC030
     FM271400 VRB03KT P6SM VCSH SCT012 BKN050
      TEMPO 2718/2722 5SM -RA BKN030 OVC040
     FM272200 05004KT 5SM BR VCSH BKN040
     FM280100 09004KT 5SM BR FEW030 BKN100
      TEMPO 2803/2806 2SM BR SKC=



000
FTUS41 KILN 271038 AAC
TAFILN
TAF AMD
KILN 271038Z 2711/2806 00000KT 5SM BR VCSH SCT040 BKN100
      TEMPO 2711/2712 2SM -RA BR BKN035 OVC080
     FM271400 12005KT P6SM VCSH SCT025 BKN150
     FM271800 06005KT P6SM SCT030 BKN150
     FM280000 05003KT 5SM BR FEW030=



000
FTUS41 KILN 271037 AAB
TAFLUK
TAF AMD
KLUK 271037Z 2711/2806 00000KT 4SM BR SCT025 OVC100
      TEMPO 2711/2713 2SM BR BKN025
     FM271400 VRB03KT P6SM SCT025 BKN060
     FM271600 VRB04KT P6SM VCSH BKN035
     FM280100 05004KT P6SM SCT040
      TEMPO 2802/2806 00000KT 5SM BR SKC=



000
FTUS41 KILN 270947 AAA
TAFDAY
TAF AMD
KDAY 270947Z 2710/2806 00000KT P6SM VCSH SCT030 BKN100
      TEMPO 2710/2714 5SM -RA BR BKN030
     FM271400 12005KT P6SM VCSH SCT025 BKN150
     FM271800 06005KT P6SM SCT030 BKN150
     FM280000 05003KT 5SM BR FEW030=



000
FTUS41 KILN 270900 AAA
TAFCVG
TAF AMD
KCVG 270900Z 2709/2812 VRB03KT 5SM BR SCT025 OVC100
      TEMPO 2709/2713 SCT005 OVC025
     FM271300 VRB03KT P6SM SCT010 BKN060
     FM271600 VRB04KT P6SM VCSH BKN035
     FM280100 05004KT P6SM SCT040
      TEMPO 2808/2812 5SM BR FEW040=



000
FTUS41 KILN 270809 AAA
TAFLUK
TAF AMD
KLUK 270809Z 2708/2806 00000KT 4SM BR VCSH SCT025 OVC100
      TEMPO 2708/2709 1SM TSRA BR SCT005 OVC025CB
     FM271000 00000KT P6SM SCT010 BKN060
     FM271600 VRB04KT P6SM VCSH BKN035
     FM280100 05004KT P6SM SCT040
      TEMPO 2802/2806 00000KT 5SM BR SKC=



000
FTUS41 KILN 270540
TAFCVG
TAF
KCVG 270540Z 2706/2812 33003KT P6SM VCSH SCT025 OVC100
      TEMPO 2706/2710 5SM BR SCT005 OVC025
     FM271000 VRB03KT P6SM SCT010 BKN060
     FM271600 VRB04KT P6SM VCSH BKN035
     FM280100 05004KT P6SM SCT040
      TEMPO 2808/2812 5SM BR FEW040=



000
FTUS41 KILN 270540
TAFLUK
TAF
KLUK 270540Z 2706/2806 00000KT P6SM VCSH SCT025 OVC100
      TEMPO 2706/2710 5SM BR SCT005 OVC025
     FM271000 00000KT P6SM SCT010 BKN060
     FM271600 VRB04KT P6SM VCSH BKN035
     FM280100 05004KT P6SM SCT040
      TEMPO 2802/2806 00000KT 5SM BR SKC=



000
FTUS41 KILN 270540
TAFCMH
TAF
KCMH 270540Z 2706/2806 00000KT P6SM FEW040 BKN150
      TEMPO 2709/2713 4SM BR
     FM271400 07004KT P6SM SCT025 BKN120
     FM272200 02004KT P6SM SCT100
      TEMPO 2802/2806 00000KT 5SM BR SKC=



000
FTUS41 KILN 270540
TAFDAY
TAF
KDAY 270540Z 2706/2806 32004KT P6SM VCSH SCT040 BKN100
     FM270900 00000KT P6SM SCT050 BKN100
      TEMPO 2709/2713 5SM BR BKN040
     FM271400 12005KT P6SM VCSH SCT025 BKN150
     FM271800 06005KT P6SM SCT030 BKN150
     FM280000 05003KT 5SM BR FEW030=



000
FTUS41 KILN 270540
TAFLCK
TAF
KLCK 270540Z 2706/2806 00000KT P6SM FEW040 BKN150
      TEMPO 2709/2713 4SM BR
     FM271400 07004KT P6SM SCT025 BKN120
     FM272200 02004KT P6SM SCT100
      TEMPO 2802/2806 00000KT 5SM BR SKC=



000
FTUS41 KILN 270540
TAFILN
TAF
KILN 270540Z 2706/2806 32004KT P6SM VCSH SCT040 BKN100
      TEMPO 2706/2707 4SM -SHRA BKN030
     FM270900 00000KT P6SM SCT050 BKN100
      TEMPO 2709/2713 5SM BR BKN040
     FM271400 12005KT P6SM VCSH SCT025 BKN150
     FM271800 06005KT P6SM SCT030 BKN150
     FM280000 05003KT 5SM BR FEW030=



000
FTUS41 KILN 270445 AAB
TAFLUK
TAF AMD
KLUK 270445Z 2705/2724 VRB03KT 5SM BR SCT040 OVC060
      TEMPO 2705/2707 31007KT 5SM -RA BR BKN030 OVC045
     FM271000 00000KT 4SM BR SCT050 BKN100
     FM271400 VRB05KT P6SM SCT035 SCT100
     FM271800 VRB05KT P6SM VCSH BKN040=



000
FTUS41 KILN 270445 AAB
TAFLUK
TAF AMD
KLUK 270445Z 2705/2724 VRB03KT 5SM BR SCT040 OVC060
      TEMPO 2705/2707 31007KT 5SM -RA BR BKN030 OVC045
     FM271000 00000KT 4SM BR SCT050 BKN100
     FM271400 VRB05KT P6SM SCT035 SCT100
     FM271800 VRB05KT P6SM VCSH BKN040=



000
FTUS41 KILN 270437 AAB
TAFCVG
TAF AMD
KCVG 270437Z 2705/2806 33003KT P6SM VCSH SCT030 OVC060
      TEMPO 2705/2707 32007KT 5SM -RA BR SCT005 OVC025
     FM271000 VRB03KT 4SM BR SCT050 BKN100
     FM271400 VRB05KT P6SM SCT035 SCT100
     FM271800 VRB05KT P6SM VCSH BKN040
     FM280100 05004KT P6SM SCT050 SCT100=



000
FTUS41 KILN 270202 AAA
TAFLUK
TAF AMD
KLUK 270202Z 2702/2724 00000KT 6SM BR SCT050 OVC150
     FM270400 00000KT 5SM -SHRA BR BKN050 OVC100
     FM271000 00000KT 4SM BR SCT050 BKN100
     FM271400 VRB05KT P6SM SCT035 SCT100
     FM271800 VRB05KT P6SM VCSH BKN040=



000
FTUS41 KILN 270202 AAA
TAFDAY
TAF AMD
KDAY 270202Z 2702/2724 25004KT P6SM VCSH SCT050 OVC150
     FM270600 04004KT P6SM VCSH SCT050 BKN100
     FM271000 10004KT 6SM BR SCT050 BKN100
     FM271400 12005KT P6SM SCT035 SCT100=



000
FTUS41 KILN 270202 AAA
TAFILN
TAF AMD
KILN 270202Z 2702/2724 VRB03KT P6SM VCSH SCT050 OVC150
     FM270500 VRB03KT 6SM -SHRA BR BKN050 OVC100
     FM271100 VRB03KT 4SM BR SCT050 BKN100
     FM271400 12005KT P6SM SCT035 SCT100=



000
FTUS41 KILN 270202 AAA
TAFCVG
TAF AMD
KCVG 270202Z 2702/2806 VRB03KT P6SM VCSH SCT050 OVC150
     FM270400 VRB03KT 5SM -SHRA BR BKN050 OVC100
     FM271000 VRB03KT 4SM BR SCT050 BKN100
     FM271400 VRB05KT P6SM SCT035 SCT100
     FM271800 VRB05KT P6SM VCSH BKN040
     FM280100 05004KT P6SM SCT050 SCT100=



000
FTUS41 KILN 262342
TAFDAY
TAF
KDAY 262342Z 2700/2724 25004KT P6SM SCT050 BKN150
     FM270600 04004KT P6SM SCT050 BKN100
     FM271000 10004KT 6SM BR SCT050 BKN100
     FM271400 12005KT P6SM SCT035 SCT100=



000
FTUS41 KILN 262342
TAFCMH
TAF
KCMH 262342Z 2700/2724 VRB03KT P6SM SCT050 BKN150
     FM270600 08004KT P6SM SCT050 SCT150
      TEMPO 2709/2713 4SM BR
     FM271400 08005KT P6SM SCT035=



000
FTUS41 KILN 262342
TAFLUK
TAF
KLUK 262342Z 2700/2724 VRB03KT P6SM SCT050 BKN150
     FM270400 00000KT 6SM BR VCSH BKN050 BKN100
     FM271000 00000KT 4SM BR SCT050 BKN100
     FM271400 VRB05KT P6SM SCT035 SCT100
     FM271800 VRB05KT P6SM VCSH BKN040=



000
FTUS41 KILN 262342
TAFLCK
TAF
KLCK 262342Z 2700/2724 VRB03KT P6SM SCT050 BKN150
     FM270600 08004KT P6SM SCT050 SCT150
      TEMPO 2709/2713 4SM BR
     FM271400 08005KT P6SM SCT035=



000
FTUS41 KILN 262342
TAFDAY
TAF
KDAY 262342Z 2700/2724 25004KT P6SM SCT050 BKN150
     FM270600 04004KT P6SM SCT050 BKN100
     FM271000 10004KT 6SM BR SCT050 BKN100
     FM271400 12005KT P6SM SCT035 SCT100=



000
FTUS41 KILN 262342
TAFCMH
TAF
KCMH 262342Z 2700/2724 VRB03KT P6SM SCT050 BKN150
     FM270600 08004KT P6SM SCT050 SCT150
      TEMPO 2709/2713 4SM BR
     FM271400 08005KT P6SM SCT035=



000
FTUS41 KILN 262342
TAFCVG
TAF
KCVG 262342Z 2700/2806 VRB03KT P6SM SCT050 BKN150
     FM270400 VRB03KT 6SM BR VCSH BKN050 BKN100
     FM271000 VRB03KT 4SM BR SCT050 BKN100
     FM271400 VRB05KT P6SM SCT035 SCT100
     FM271800 VRB05KT P6SM VCSH BKN040
     FM280100 05004KT P6SM SCT050 SCT100=



000
FTUS41 KILN 262342
TAFILN
TAF
KILN 262342Z 2700/2724 VRB03KT P6SM SCT050 BKN150
     FM270600 VRB03KT P6SM SCT050 BKN100
     FM271000 VRB03KT 4SM BR SCT050 BKN100
     FM271400 12005KT P6SM SCT035 SCT100=



000
FTUS41 KILN 262342
TAFCVG
TAF
KCVG 262342Z 2700/2806 VRB03KT P6SM SCT050 BKN150
     FM270400 VRB03KT 6SM BR VCSH BKN050 BKN100
     FM271000 VRB03KT 4SM BR SCT050 BKN100
     FM271400 VRB05KT P6SM SCT035 SCT100
     FM271800 VRB05KT P6SM VCSH BKN040
     FM280100 05004KT P6SM SCT050 SCT100=



000
FTUS41 KILN 262342
TAFILN
TAF
KILN 262342Z 2700/2724 VRB03KT P6SM SCT050 BKN150
     FM270600 VRB03KT P6SM SCT050 BKN100
     FM271000 VRB03KT 4SM BR SCT050 BKN100
     FM271400 12005KT P6SM SCT035 SCT100=



000
FTUS41 KILN 262342
TAFLUK
TAF
KLUK 262342Z 2700/2724 VRB03KT P6SM SCT050 BKN150
     FM270400 00000KT 6SM BR VCSH BKN050 BKN100
     FM271000 00000KT 4SM BR SCT050 BKN100
     FM271400 VRB05KT P6SM SCT035 SCT100
     FM271800 VRB05KT P6SM VCSH BKN040=



000
FTUS41 KILN 262342
TAFLCK
TAF
KLCK 262342Z 2700/2724 VRB03KT P6SM SCT050 BKN150
     FM270600 08004KT P6SM SCT050 SCT150
      TEMPO 2709/2713 4SM BR
     FM271400 08005KT P6SM SCT035=



000
FTUS41 KILN 262222 AAE
TAFILN
TAF AMD
KILN 262222Z 2622/2718 24005KT P6SM -SHRA SCT025 BKN040
     FM270000 35005KT P6SM VCSH BKN040
     FM270500 04004KT P6SM SKC
     FM271500 08004KT P6SM FEW050=



000
FTUS41 KILN 262217 AAD
TAFLUK
TAF AMD
KLUK 262217Z 2622/2718 33012G22KT 1 1/2SM +TSRA BR OVC025CB
     FM262300 33008KT P6SM VCSH BKN040
     FM270100 00000KT P6SM VCSH BKN040
     FM270900 00000KT 4SM BR SCT040
      TEMPO 2710/2712 2SM BR
     FM271200 00000KT P6SM SCT040
     FM271500 08003KT P6SM FEW050=



000
FTUS41 KILN 262217 AAD
TAFLUK
TAF AMD
KLUK 262217Z 2622/2718 33012G22KT 1 1/2SM +TSRA BR OVC025CB
     FM262300 33008KT P6SM VCSH BKN040
     FM270100 00000KT P6SM VCSH BKN040
     FM270900 00000KT 4SM BR SCT040
      TEMPO 2710/2712 2SM BR
     FM271200 00000KT P6SM SCT040
     FM271500 08003KT P6SM FEW050=



000
FTUS41 KILN 262211 AAC
TAFLUK
TAF AMD
KLUK 262211Z 2622/2718 33012G22KT 3SM TSRA BR OVC025CB
     FM262300 33008KT P6SM VCSH BKN040
     FM270100 00000KT P6SM VCSH BKN040
     FM270900 00000KT 4SM BR SCT040
      TEMPO 2710/2712 2SM BR
     FM271200 00000KT P6SM SCT040
     FM271500 08003KT P6SM FEW050=



000
FTUS41 KILN 262211 AAC
TAFCVG
TAF AMD
KCVG 262211Z 2622/2724 34012KT 4SM SHRA BR OVC025
     FM262300 33008KT P6SM VCSH BKN040
     FM270100 03003KT P6SM VCSH BKN040
      TEMPO 2710/2712 5SM BR
     FM271500 08003KT P6SM FEW050=



000
FTUS41 KILN 262211 AAC
TAFLUK
TAF AMD
KLUK 262211Z 2622/2718 33012G22KT 3SM TSRA BR OVC025CB
     FM262300 33008KT P6SM VCSH BKN040
     FM270100 00000KT P6SM VCSH BKN040
     FM270900 00000KT 4SM BR SCT040
      TEMPO 2710/2712 2SM BR
     FM271200 00000KT P6SM SCT040
     FM271500 08003KT P6SM FEW050=



000
FTUS41 KILN 262125 AAB
TAFCVG
TAF AMD
KCVG 262125Z 2621/2724 30012G20KT P6SM TS SCT020 BKN040CB
      TEMPO 2621/2623 3SM TSRA BR OVC020CB
     FM262300 33008KT P6SM VCSH BKN040
     FM270100 03003KT P6SM VCSH BKN040
      TEMPO 2710/2712 5SM BR
     FM271500 08003KT P6SM FEW050=



000
FTUS41 KILN 262125 AAB
TAFLUK
TAF AMD
KLUK 262125Z 2621/2718 30012G20KT P6SM TS SCT025 BKN040CB
      TEMPO 2622/2623 3SM TSRA BR OVC025CB
     FM262300 33008KT P6SM VCSH BKN040
     FM270100 00000KT P6SM VCSH BKN040
     FM270900 00000KT 4SM BR SCT040
      TEMPO 2710/2712 2SM BR
     FM271200 00000KT P6SM SCT040
     FM271500 08003KT P6SM FEW050=



000
FTUS41 KILN 262036 AAB
TAFILN
TAF AMD
KILN 262036Z 2621/2718 33012G20KT P6SM TS SCT025 OVC040CB
      TEMPO 2621/2622 3SM TSRA BR OVC020CB
     FM262200 32005KT P6SM VCTS SCT025 BKN040CB
     FM270000 35005KT P6SM BKN040
     FM270500 04004KT P6SM SKC
     FM271500 08004KT P6SM FEW050=



000
FTUS41 KILN 262036 AAB
TAFILN
TAF AMD
KILN 262036Z 2621/2718 33012G20KT P6SM TS SCT025 OVC040CB
      TEMPO 2621/2622 3SM TSRA BR OVC020CB
     FM262200 32005KT P6SM VCTS SCT025 BKN040CB
     FM270000 35005KT P6SM BKN040
     FM270500 04004KT P6SM SKC
     FM271500 08004KT P6SM FEW050=



000
FTUS41 KILN 262006 AAA
TAFLCK
TAF AMD
KLCK 262006Z 2620/2718 25008KT 5SM -TSRA BR OVC040CB
     FM262200 35005KT P6SM BKN040
     FM270400 05004KT P6SM SKC
     FM271500 06004KT P6SM FEW050=



000
FTUS41 KILN 262006 AAA
TAFCVG
TAF AMD
KCVG 262006Z 2620/2724 25006KT P6SM VCTS BKN035CB
     FM262200 30005KT P6SM VCTS BKN040CB
      TEMPO 2622/2624 3SM TSRA BR OVC020CB
     FM270100 03003KT P6SM VCSH BKN040
      TEMPO 2710/2712 5SM BR
     FM271500 08003KT P6SM FEW050=



000
FTUS41 KILN 262006 AAA
TAFILN
TAF AMD
KILN 262006Z 2620/2718 25005KT P6SM VCTS SCT025 BKN040CB
      TEMPO 2620/2622 3SM TSRA BR OVC020CB
     FM262200 32005KT P6SM VCTS SCT025 BKN040CB
     FM270000 35005KT P6SM BKN040
     FM270500 04004KT P6SM SKC
     FM271500 08004KT P6SM FEW050=



000
FTUS41 KILN 262006 AAA
TAFCMH
TAF AMD
KCMH 262006Z 2620/2718 25006KT P6SM VCSH BKN040
     FM262200 35005KT P6SM BKN040
     FM270400 05004KT P6SM SKC
     FM271500 06004KT P6SM FEW050=



000
FTUS41 KILN 262006 AAA
TAFDAY
TAF AMD
KDAY 262006Z 2620/2718 32005KT P6SM VCSH BKN040
     FM262300 35005KT P6SM BKN040
     FM270500 04004KT P6SM SKC
     FM271500 09005KT P6SM FEW050=



000
FTUS41 KILN 262006 AAA
TAFLUK
TAF AMD
KLUK 262006Z 2620/2718 25006KT P6SM VCTS BKN035CB
     FM262200 30005KT P6SM VCTS BKN040CB
      TEMPO 2622/2624 3SM TSRA BR OVC025CB
     FM270100 00000KT P6SM VCSH BKN040
     FM270900 00000KT 4SM BR SCT040
      TEMPO 2710/2712 2SM BR
     FM271200 00000KT P6SM SCT040
     FM271500 08003KT P6SM FEW050=



000
FTUS41 KILN 261735
TAFILN
TAF
KILN 261735Z 2618/2718 VRB03KT P6SM VCSH SCT025 BKN040
     FM261900 32005KT P6SM VCSH BKN040
      TEMPO 2620/2624 3SM -TSRA BR OVC028CB
     FM270000 35005KT P6SM BKN040
     FM270500 04004KT P6SM SKC
     FM271500 08004KT P6SM FEW050=



000
FTUS41 KILN 261735
TAFCMH
TAF
KCMH 261735Z 2618/2718 30006KT P6SM VCSH BKN040
      TEMPO 2618/2622 3SM -TSRA BR OVC027CB
     FM262200 35005KT P6SM BKN040
     FM270400 05004KT P6SM SKC
     FM271500 06004KT P6SM FEW050=



000
FTUS41 KILN 261735
TAFLCK
TAF
KLCK 261735Z 2618/2718 30006KT P6SM VCSH BKN040
      TEMPO 2618/2622 3SM -TSRA BR OVC027CB
     FM262200 35005KT P6SM BKN040
     FM270400 05004KT P6SM SKC
     FM271500 06004KT P6SM FEW050=



000
FTUS41 KILN 261735
TAFLUK
TAF
KLUK 261735Z 2618/2718 25006KT P6SM VCSH BKN035
     FM262100 30005KT P6SM VCSH BKN040
      TEMPO 2622/2624 5SM -SHRA
     FM270100 00000KT P6SM BKN040
     FM270900 00000KT 4SM BR FEW040
      TEMPO 2710/2712 2SM BR
     FM271200 00000KT P6SM FEW040
     FM271500 08003KT P6SM FEW050=



000
FTUS41 KILN 261735
TAFCVG
TAF
KCVG 261735Z 2618/2724 25006KT P6SM VCSH BKN035
     FM262100 30005KT P6SM VCSH BKN040
      TEMPO 2622/2624 5SM -SHRA
     FM270100 03003KT P6SM BKN040
      TEMPO 2710/2712 5SM BR
     FM271500 08003KT P6SM FEW050=



000
FTUS41 KILN 261735
TAFDAY
TAF
KDAY 261735Z 2618/2718 32005KT P6SM VCSH BKN040
      TEMPO 2619/2622 5SM -TSRA OVC028CB
     FM262300 35005KT P6SM BKN040
     FM270500 04004KT P6SM SKC
     FM271500 09005KT P6SM FEW050=



000
FTUS41 KILN 261524 AAC
TAFILN
TAF AMD
KILN 261524Z 2615/2712 VRB03KT P6SM SCT025 BKN040
      TEMPO 2615/2617 BKN025
     FM261900 32005KT P6SM VCSH BKN040
      TEMPO 2622/2624 5SM -SHRA
     FM270000 35005KT P6SM BKN040
     FM270500 04004KT P6SM SKC=



000
FTUS41 KILN 261524 AAA
TAFCMH
TAF AMD
KCMH 261524Z 2615/2712 23004KT P6SM SCT025 BKN050
      TEMPO 2615/2617 BKN025
     FM261800 30006KT P6SM VCSH BKN040
      TEMPO 2621/2623 5SM -SHRA
     FM262300 35005KT P6SM BKN040
     FM270400 05004KT P6SM SKC=



000
FTUS41 KILN 261524 AAB
TAFCVG
TAF AMD
KCVG 261524Z 2615/2718 25004KT P6SM BKN035
     FM262100 30005KT P6SM VCSH BKN040
      TEMPO 2622/2624 5SM -SHRA
     FM270100 03003KT P6SM BKN040
     FM271500 08003KT P6SM SCT050=



000
FTUS41 KILN 261524 AAB
TAFDAY
TAF AMD
KDAY 261524Z 2615/2712 VRB03KT P6SM SCT025 BKN040
      TEMPO 2615/2617 BKN025
     FM261800 32005KT P6SM VCSH BKN040
      TEMPO 2620/2622 5SM -SHRA
     FM262300 35005KT P6SM BKN040
     FM270500 04004KT P6SM SKC=



000
FTUS41 KILN 261524 AAB
TAFLUK
TAF AMD
KLUK 261524Z 2615/2712 25004KT P6SM BKN035
     FM262100 30005KT P6SM VCSH BKN040
      TEMPO 2622/2624 5SM -SHRA
     FM270100 00000KT P6SM BKN040
     FM271000 00000KT 4SM BR FEW040=



000
FTUS41 KILN 261524 AAA
TAFLCK
TAF AMD
KLCK 261524Z 2615/2712 23004KT P6SM SCT025 BKN050
      TEMPO 2615/2617 BKN025
     FM261800 30006KT P6SM VCSH BKN040
      TEMPO 2621/2623 5SM -SHRA
     FM262300 35005KT P6SM BKN040
     FM270400 05004KT P6SM SKC=



000
FTUS41 KILN 261458 AAA
TAFDAY
TAF AMD
KDAY 261458Z 2615/2712 VRB03KT P6SM SCT025 BKN040
      TEMPO 2615/2617 BKN025
     FM261800 32005KT P6SM VCSH BKN040
      TEMPO 2620/2622 5SM -TSRA BR BKN030CB OVC150
     FM270200 35005KT P6SM SCT120
     FM270500 04004KT P6SM SKC=



000
FTUS41 KILN 261458 AAB
TAFILN
TAF AMD
KILN 261458Z 2615/2712 VRB03KT P6SM SCT025 BKN040
      TEMPO 2615/2617 BKN025
     FM261900 32005KT P6SM VCSH BKN040
      TEMPO 2621/2623 5SM -TSRA BR BKN030CB OVC150
     FM270200 35005KT P6SM SCT120
     FM270500 04004KT P6SM SKC=



000
FTUS41 KILN 261458 AAB
TAFILN
TAF AMD
KILN 261458Z 2615/2712 VRB03KT P6SM SCT025 BKN040
      TEMPO 2615/2617 BKN025
     FM261900 32005KT P6SM VCSH BKN040
      TEMPO 2621/2623 5SM -TSRA BR BKN030CB OVC150
     FM270200 35005KT P6SM SCT120
     FM270500 04004KT P6SM SKC=



000
FTUS41 KILN 261458 AAA
TAFDAY
TAF AMD
KDAY 261458Z 2615/2712 VRB03KT P6SM SCT025 BKN040
      TEMPO 2615/2617 BKN025
     FM261800 32005KT P6SM VCSH BKN040
      TEMPO 2620/2622 5SM -TSRA BR BKN030CB OVC150
     FM270200 35005KT P6SM SCT120
     FM270500 04004KT P6SM SKC=



000
FTUS41 KILN 261451 AAA
TAFLUK
TAF AMD
KLUK 261451Z 2615/2712 25004KT P6SM BKN035
     FM262100 32005KT P6SM VCSH BKN040
      TEMPO 2622/2624 5SM -SHRA BR BKN030
     FM270100 02004KT P6SM SCT030 BKN150=



000
FTUS41 KILN 261451 AAA
TAFCVG
TAF AMD
KCVG 261451Z 2615/2718 25004KT P6SM BKN035
     FM262100 32005KT P6SM VCSH BKN040
      TEMPO 2622/2624 5SM -SHRA BR BKN030
     FM270100 02004KT P6SM SCT030 BKN150
     FM271200 05006KT P6SM SKC=



    US Dept of Commerce
    National Oceanic and Atmospheric Administration
    National Weather Service
    1325 East West Highway
    Silver Spring, MD 20910
    Page Author: NWS Internet Services Team
Disclaimer
Information Quality
Credits
Glossary
Privacy Policy
Freedom of Information Act (FOIA)
About Us
Career Opportunities